createdAt,value
2023-05-03T00:02:25.828Z,2.70
2023-05-03T00:04:54.727Z,2.13
2023-05-03T00:07:23.072Z,2.50
2023-05-03T00:09:50.593Z,3.20
2023-05-03T00:12:17.927Z,2.97
2023-05-03T00:14:46.333Z,2.85
2023-05-03T00:17:13.895Z,3.10
2023-05-03T00:19:42.615Z,2.40
2023-05-03T00:22:09.880Z,2.70
2023-05-03T00:24:37.136Z,2.10
2023-05-03T00:27:05.368Z,2.65
2023-05-03T00:29:32.764Z,3.80
2023-05-03T00:32:00.531Z,4.10
2023-05-03T00:34:27.871Z,3.17
2023-05-03T00:36:55.248Z,3.08
2023-05-03T00:39:22.615Z,3.22
2023-05-03T00:41:50.405Z,2.65
2023-05-03T00:44:17.692Z,3.53
2023-05-03T00:46:45.176Z,3.47
2023-05-03T00:49:12.685Z,3.45
2023-05-03T00:51:42.138Z,3.33
2023-05-03T00:54:10.534Z,3.33
2023-05-03T00:56:50.381Z,2.33
2023-05-03T00:59:19.725Z,3.53
2023-05-03T01:01:53.540Z,3.00
2023-05-03T01:04:22.118Z,3.28
2023-05-03T01:07:11.238Z,3.15
2023-05-03T01:09:48.572Z,3.00
2023-05-03T01:12:42.296Z,3.58
2023-05-03T01:15:29.740Z,2.90
2023-05-03T01:18:07.914Z,2.63
2023-05-03T01:20:37.298Z,3.08
2023-05-03T01:23:36.470Z,3.05
2023-05-03T01:26:23.266Z,3.17
2023-05-03T01:28:51.023Z,2.80
2023-05-03T01:31:38.930Z,3.15
2023-05-03T01:34:28.005Z,3.08
2023-05-03T01:36:59.715Z,3.20
2023-05-03T01:39:35.926Z,2.88
2023-05-03T01:42:05.091Z,2.78
2023-05-03T01:44:33.725Z,3.15
2023-05-03T01:47:02.365Z,3.38
2023-05-03T01:49:29.579Z,2.67
2023-05-03T01:51:56.810Z,3.30
2023-05-03T01:54:23.982Z,3.05
2023-05-03T01:56:51.971Z,3.08
2023-05-03T01:59:19.104Z,2.67
2023-05-03T02:01:46.201Z,2.72
2023-05-03T02:04:13.593Z,2.88
2023-05-03T02:06:40.947Z,2.90
2023-05-03T02:09:08.608Z,3.20
2023-05-03T02:11:36.015Z,3.40
2023-05-03T02:14:03.119Z,3.50
2023-05-03T02:16:30.263Z,4.13
2023-05-03T02:18:59.595Z,4.00
2023-05-03T02:21:27.450Z,4.03
2023-05-03T02:23:54.633Z,4.18
2023-05-03T02:26:22.960Z,3.38
2023-05-03T02:28:50.039Z,2.90
2023-05-03T02:31:17.255Z,3.40
2023-05-03T02:33:44.396Z,4.35
2023-05-03T02:36:11.643Z,4.38
2023-05-03T02:38:38.842Z,3.30
2023-05-03T02:41:06.281Z,3.17
2023-05-03T02:43:33.378Z,3.50
2023-05-03T02:46:00.617Z,2.90
2023-05-03T02:48:27.854Z,3.13
2023-05-03T02:50:55.105Z,3.65
2023-05-03T02:53:22.355Z,3.55
2023-05-03T02:55:50.628Z,3.53
2023-05-03T02:58:17.865Z,3.83
2023-05-03T03:00:44.979Z,3.60
2023-05-03T03:03:15.410Z,3.30
2023-05-03T03:05:42.661Z,3.63
2023-05-03T03:08:09.918Z,3.70
2023-05-03T03:10:38.125Z,3.10
2023-05-03T03:13:05.487Z,3.75
2023-05-03T03:15:37.517Z,4.15
2023-05-03T03:18:04.888Z,3.25
2023-05-03T03:20:32.033Z,4.13
2023-05-03T03:22:59.259Z,4.20
2023-05-03T03:25:27.140Z,4.70
2023-05-03T03:27:57.560Z,4.43
2023-05-03T03:30:25.754Z,5.35
2023-05-03T03:33:07.988Z,4.57
2023-05-03T03:35:39.977Z,4.85
2023-05-03T03:38:07.480Z,4.90
2023-05-03T03:40:38.920Z,4.72
2023-05-03T03:43:06.460Z,4.97
2023-05-03T03:45:33.563Z,3.90
2023-05-03T03:48:01.158Z,5.22
2023-05-03T03:50:28.662Z,4.10
2023-05-03T03:52:56.089Z,4.20
2023-05-03T03:55:23.432Z,4.45
2023-05-03T03:57:53.540Z,3.78
2023-05-03T04:00:22.157Z,3.47
2023-05-03T04:02:57.103Z,3.63
2023-05-03T04:05:24.254Z,3.78
2023-05-03T04:07:51.717Z,4.38
2023-05-03T04:10:20.083Z,3.83
2023-05-03T04:12:47.336Z,4.60
2023-05-03T04:15:16.017Z,4.57
2023-05-03T04:17:45.438Z,3.83
2023-05-03T04:20:13.868Z,3.70
2023-05-03T04:22:45.066Z,4.13
2023-05-03T04:25:19.546Z,4.50
2023-05-03T04:27:54.632Z,3.63
2023-05-03T04:30:23.336Z,4.45
2023-05-03T04:32:55.544Z,3.92
2023-05-03T04:35:24.229Z,4.68
2023-05-03T04:37:52.343Z,3.83
2023-05-03T04:40:23.336Z,4.00
2023-05-03T04:42:59.601Z,5.03
2023-05-03T04:45:27.998Z,4.80
2023-05-03T04:47:55.265Z,4.38
2023-05-03T04:50:22.399Z,4.80
2023-05-03T04:52:51.460Z,5.03
2023-05-03T04:55:20.662Z,5.15
2023-05-03T04:57:48.239Z,4.82
2023-05-03T05:00:16.527Z,5.15
2023-05-03T05:02:51.612Z,4.72
2023-05-03T05:05:20.248Z,5.38
2023-05-03T05:07:48.140Z,5.80
2023-05-03T05:10:17.146Z,5.95
2023-05-03T05:12:44.614Z,5.55
2023-05-03T05:15:11.985Z,5.57
2023-05-03T05:17:40.198Z,5.18
2023-05-03T05:20:12.568Z,6.10
2023-05-03T05:22:44.009Z,5.93
2023-05-03T05:25:11.181Z,6.57
2023-05-03T05:27:40.215Z,7.28
2023-05-03T05:30:08.539Z,7.00
2023-05-03T05:32:37.578Z,7.68
2023-05-03T05:35:05.612Z,6.03
2023-05-03T05:37:32.892Z,7.22
2023-05-03T05:40:04.473Z,7.10
2023-05-03T05:42:38.356Z,6.90
2023-05-03T05:45:08.276Z,8.30
2023-05-03T05:47:36.613Z,7.93
2023-05-03T05:50:07.701Z,8.05
2023-05-03T05:52:43.272Z,7.97
2023-05-03T05:55:14.523Z,9.18
2023-05-03T05:57:41.689Z,9.25
2023-05-03T06:00:14.823Z,8.02
2023-05-03T06:02:44.833Z,6.47
2023-05-03T06:05:16.726Z,6.93
2023-05-03T06:07:44.366Z,7.35
2023-05-03T06:10:11.820Z,7.85
2023-05-03T06:12:41.471Z,6.32
2023-05-03T06:15:14.467Z,6.45
2023-05-03T06:17:42.228Z,6.20
2023-05-03T06:20:11.958Z,5.85
2023-05-03T06:22:40.458Z,7.25
2023-05-03T06:25:08.962Z,6.03
2023-05-03T06:27:38.499Z,6.55
2023-05-03T06:30:08.349Z,5.28
2023-05-03T06:32:35.699Z,6.03
2023-05-03T06:35:03.619Z,5.30
2023-05-03T06:37:30.988Z,5.80
2023-05-03T06:39:58.148Z,4.90
2023-05-03T06:42:25.578Z,5.18
2023-05-03T06:45:06.130Z,4.45
2023-05-03T06:47:33.451Z,5.70
2023-05-03T06:50:00.842Z,4.20
2023-05-03T06:52:28.113Z,5.47
2023-05-03T06:54:55.314Z,5.20
2023-05-03T06:57:22.954Z,4.18
2023-05-03T06:59:50.060Z,6.30
2023-05-03T07:02:18.141Z,5.88
2023-05-03T07:04:45.396Z,5.60
2023-05-03T07:07:12.615Z,4.68
2023-05-03T07:09:43.487Z,5.60
2023-05-03T07:12:11.510Z,4.73
2023-05-03T07:14:40.239Z,5.25
2023-05-03T07:17:07.581Z,6.70
2023-05-03T07:19:35.042Z,6.53
2023-05-03T07:22:03.495Z,5.47
2023-05-03T07:24:30.668Z,5.78
2023-05-03T07:26:58.397Z,6.13
2023-05-03T07:29:27.311Z,5.95
2023-05-03T07:31:54.838Z,5.78
2023-05-03T07:34:22.263Z,5.50
2023-05-03T07:36:49.351Z,6.72
2023-05-03T07:39:17.411Z,6.97
2023-05-03T07:41:44.945Z,7.38
2023-05-03T07:44:12.162Z,5.68
2023-05-03T07:46:39.304Z,6.90
2023-05-03T07:49:06.699Z,6.85
2023-05-03T07:51:38.432Z,7.38
2023-05-03T07:54:06.328Z,7.38
2023-05-03T07:56:33.733Z,7.38
2023-05-03T07:59:09.068Z,7.55
2023-05-03T08:01:37.897Z,7.70
2023-05-03T08:04:05.816Z,9.57
2023-05-03T08:06:35.609Z,7.75
2023-05-03T08:09:04.854Z,7.50
2023-05-03T08:11:32.340Z,7.43
2023-05-03T08:13:59.587Z,6.40
2023-05-03T08:16:27.152Z,7.30
2023-05-03T08:18:54.503Z,6.68
2023-05-03T08:21:24.812Z,6.97
2023-05-03T08:23:52.192Z,7.90
2023-05-03T08:26:19.529Z,6.75
2023-05-03T08:28:46.701Z,7.43
2023-05-03T08:31:14.022Z,7.95
2023-05-03T08:33:41.328Z,6.57
2023-05-03T08:36:08.724Z,7.82
2023-05-03T08:38:41.167Z,7.78
2023-05-03T08:41:23.646Z,8.23
2023-05-03T08:46:20.737Z,7.88
2023-05-03T08:48:49.407Z,9.02
2023-05-03T08:51:17.804Z,9.48
2023-05-03T08:53:45.563Z,10.07
2023-05-03T08:56:23.878Z,9.20
2023-05-03T08:58:51.055Z,9.50
2023-05-03T09:01:18.300Z,7.78
2023-05-03T09:03:51.152Z,7.70
2023-05-03T09:06:26.004Z,8.18
2023-05-03T09:08:54.172Z,6.22
2023-05-03T09:11:23.034Z,6.78
2023-05-03T09:13:52.151Z,7.43
2023-05-03T09:16:30.287Z,7.97
2023-05-03T09:19:06.325Z,7.53
2023-05-03T09:21:34.860Z,6.50
2023-05-03T09:24:04.156Z,6.95
2023-05-03T09:26:37.411Z,6.93
2023-05-03T09:29:05.234Z,6.60
2023-05-03T09:31:34.022Z,5.78
2023-05-03T09:34:01.981Z,6.10
2023-05-03T09:36:44.804Z,6.72
2023-05-03T09:39:19.836Z,7.03
2023-05-03T09:41:47.231Z,7.68
2023-05-03T09:44:14.498Z,5.32
2023-05-03T09:47:04.848Z,7.30
2023-05-03T09:49:33.142Z,6.80
2023-05-03T09:52:01.426Z,5.95
2023-05-03T09:54:31.400Z,5.57
2023-05-03T09:56:59.437Z,5.95
2023-05-03T09:59:26.815Z,5.95
2023-05-03T10:01:58.875Z,6.15
2023-05-03T10:04:36.244Z,6.07
2023-05-03T10:07:07.852Z,4.97
2023-05-03T10:09:47.024Z,5.80
2023-05-03T10:12:17.579Z,5.15
2023-05-03T10:14:48.330Z,5.63
2023-05-03T10:17:47.974Z,5.28
2023-05-03T10:20:24.157Z,5.68
2023-05-03T10:23:07.630Z,5.90
2023-05-03T10:25:37.166Z,6.03
2023-05-03T10:28:06.860Z,5.35
2023-05-03T10:30:40.942Z,4.97
2023-05-03T10:33:14.344Z,5.28
2023-05-03T10:35:43.783Z,5.03
2023-05-03T10:38:19.965Z,4.57
2023-05-03T10:40:47.407Z,6.38
2023-05-03T10:43:30.420Z,5.70
2023-05-03T10:45:58.409Z,5.45
2023-05-03T10:48:25.820Z,6.18
2023-05-03T10:50:53.077Z,5.47
2023-05-03T10:53:49.736Z,5.85
2023-05-03T10:56:16.835Z,6.93
2023-05-03T10:58:46.275Z,4.53
2023-05-03T11:01:15.837Z,6.15
2023-05-03T11:03:49.468Z,5.57
2023-05-03T11:06:33.849Z,5.30
2023-05-03T11:09:01.815Z,5.30
2023-05-03T11:11:29.101Z,5.38
2023-05-03T11:13:56.461Z,5.35
2023-05-03T11:16:24.295Z,6.60
2023-05-03T11:18:51.686Z,6.30
2023-05-03T11:21:19.645Z,6.55
2023-05-03T11:23:47.149Z,6.18
2023-05-03T11:26:15.037Z,6.35
2023-05-03T11:28:43.251Z,7.05
2023-05-03T11:31:11.274Z,6.55
2023-05-03T11:33:39.839Z,5.00
2023-05-03T11:36:09.840Z,6.05
2023-05-03T11:38:39.757Z,6.93
2023-05-03T11:41:16.645Z,6.90
2023-05-03T11:43:52.999Z,6.22
2023-05-03T11:46:31.959Z,6.55
2023-05-03T11:48:59.298Z,7.22
2023-05-03T11:51:27.841Z,6.30
2023-05-03T11:53:56.039Z,7.03
2023-05-03T11:56:23.970Z,6.90
2023-05-03T11:58:57.550Z,6.38
2023-05-03T12:01:29.127Z,6.90
2023-05-03T12:03:58.384Z,7.57
2023-05-03T12:06:30.687Z,6.50
2023-05-03T12:08:59.370Z,7.13
2023-05-03T12:11:29.460Z,7.57
2023-05-03T12:14:03.081Z,6.63
2023-05-03T12:16:47.481Z,6.75
2023-05-03T12:19:27.554Z,7.53
2023-05-03T12:22:17.764Z,7.50
2023-05-03T12:24:45.177Z,7.28
2023-05-03T12:27:14.402Z,7.72
2023-05-03T12:29:42.072Z,7.18
2023-05-03T12:32:11.931Z,7.63
2023-05-03T12:34:41.422Z,7.97
2023-05-03T12:37:11.888Z,7.47
2023-05-03T12:39:40.423Z,7.10
2023-05-03T12:42:09.351Z,7.40
2023-05-03T12:44:42.665Z,8.45
2023-05-03T12:47:11.265Z,8.75
2023-05-03T12:49:39.966Z,7.45
2023-05-03T12:52:34.778Z,7.65
2023-05-03T12:54:56.088Z,8.38
2023-05-03T12:57:24.479Z,8.77
2023-05-03T13:00:02.140Z,8.35
2023-05-03T13:05:11.357Z,9.50
2023-05-03T13:07:43.179Z,6.60
2023-05-03T13:12:46.274Z,8.38
2023-05-03T13:15:13.689Z,8.25
2023-05-03T13:17:40.888Z,8.40
2023-05-03T13:20:08.609Z,9.23
2023-05-03T13:22:35.750Z,8.38
2023-05-03T13:25:03.484Z,7.38
2023-05-03T13:27:31.128Z,9.52
2023-05-03T13:30:00.378Z,8.55
2023-05-03T13:32:27.869Z,7.22
2023-05-03T13:34:55.035Z,7.38
2023-05-03T13:37:23.733Z,8.68
2023-05-03T13:39:50.933Z,9.57
2023-05-03T13:42:18.209Z,8.68
2023-05-03T13:44:48.682Z,9.25
2023-05-03T13:47:16.417Z,8.63
2023-05-03T13:49:43.537Z,9.52
2023-05-03T13:52:11.654Z,8.27
2023-05-03T13:54:38.985Z,8.35
2023-05-03T13:57:06.141Z,7.68
2023-05-03T13:59:33.254Z,8.30
2023-05-03T14:02:00.971Z,8.23
2023-05-03T14:04:28.526Z,8.70
2023-05-03T14:06:55.836Z,7.35
2023-05-03T14:09:23.558Z,8.65
2023-05-03T14:11:51.547Z,8.18
2023-05-03T14:14:18.690Z,8.07
2023-05-03T14:16:47.111Z,7.70
2023-05-03T14:19:15.175Z,10.07
2023-05-03T14:21:43.222Z,8.65
2023-05-03T14:24:10.375Z,8.40
2023-05-03T14:26:37.734Z,7.57
2023-05-03T14:29:06.027Z,7.93
2023-05-03T14:31:34.205Z,9.07
2023-05-03T14:34:01.479Z,8.13
2023-05-03T14:36:34.780Z,6.95
2023-05-03T14:39:05.352Z,7.85
2023-05-03T14:41:34.175Z,6.55
2023-05-03T14:44:02.189Z,8.10
2023-05-03T14:46:29.446Z,7.35
2023-05-03T14:48:57.055Z,7.10
2023-05-03T14:51:24.383Z,7.97
2023-05-03T14:53:51.640Z,7.35
2023-05-03T14:56:18.947Z,6.68
2023-05-03T14:58:46.148Z,6.57
2023-05-03T15:01:20.468Z,6.43
2023-05-03T15:03:48.065Z,6.63
2023-05-03T15:06:16.714Z,7.13
2023-05-03T15:08:44.027Z,6.43
2023-05-03T15:11:11.626Z,5.53
2023-05-03T15:13:38.811Z,6.45
2023-05-03T15:16:06.808Z,6.22
2023-05-03T15:18:33.871Z,4.75
2023-05-03T15:21:01.270Z,4.85
2023-05-03T15:23:28.459Z,5.38
2023-05-03T15:25:55.696Z,4.97
2023-05-03T15:28:22.926Z,5.13
2023-05-03T15:30:50.919Z,3.65
2023-05-03T15:33:18.462Z,4.82
2023-05-03T15:35:45.746Z,4.00
2023-05-03T15:38:12.898Z,3.95
2023-05-03T15:40:40.882Z,4.57
2023-05-03T15:43:08.045Z,4.72
2023-05-03T15:45:35.718Z,3.90
2023-05-03T15:48:03.180Z,3.85
2023-05-03T15:50:31.006Z,5.65
2023-05-03T15:52:58.377Z,5.80
2023-05-03T15:55:26.751Z,4.80
2023-05-03T15:57:54.486Z,4.70
2023-05-03T16:00:23.131Z,5.10
2023-05-03T16:02:50.757Z,4.22
2023-05-03T16:05:18.095Z,4.63
2023-05-03T16:07:45.673Z,5.40
2023-05-03T16:10:13.307Z,4.20
2023-05-03T16:12:40.965Z,5.60
2023-05-03T16:15:12.412Z,4.40
2023-05-03T16:17:39.898Z,4.47
2023-05-03T16:20:11.028Z,4.30
2023-05-03T16:22:38.534Z,5.13
2023-05-03T16:25:12.412Z,5.22
2023-05-03T16:27:42.556Z,4.45
2023-05-03T16:30:10.541Z,4.70
2023-05-03T16:32:37.803Z,5.03
2023-05-03T16:35:05.290Z,5.60
2023-05-03T16:37:34.291Z,6.22
2023-05-03T16:40:01.614Z,5.65
2023-05-03T16:42:28.790Z,6.28
2023-05-03T16:44:56.048Z,6.13
2023-05-03T16:47:23.477Z,5.90
2023-05-03T16:49:50.593Z,6.15
2023-05-03T16:52:17.845Z,4.85
2023-05-03T16:54:44.972Z,5.88
2023-05-03T16:57:12.182Z,5.07
2023-05-03T16:59:39.366Z,5.53
2023-05-03T17:02:06.889Z,5.28
2023-05-03T17:04:34.128Z,6.13
2023-05-03T17:07:01.354Z,7.32
2023-05-03T17:09:28.473Z,6.63
2023-05-03T17:11:55.648Z,6.50
2023-05-03T17:14:22.987Z,7.75
2023-05-03T17:16:51.233Z,6.38
2023-05-03T17:19:19.389Z,7.80
2023-05-03T17:21:46.674Z,6.40
2023-05-03T17:24:13.887Z,8.30
2023-05-03T17:26:41.141Z,8.30
2023-05-03T17:29:08.306Z,6.80
2023-05-03T17:31:35.862Z,8.18
2023-05-03T17:34:03.124Z,7.35
2023-05-03T17:36:30.653Z,7.88
2023-05-03T17:38:57.809Z,7.35
2023-05-03T17:41:24.967Z,7.20
2023-05-03T17:43:52.414Z,8.38
2023-05-03T17:46:20.399Z,7.53
2023-05-03T17:48:48.705Z,6.47
2023-05-03T17:51:15.938Z,7.80
2023-05-03T17:53:43.224Z,7.15
2023-05-03T17:56:18.176Z,7.20
2023-05-03T17:58:46.838Z,9.35
2023-05-03T18:01:15.806Z,7.40
2023-05-03T18:03:43.386Z,6.68
2023-05-03T18:06:13.348Z,6.53
2023-05-03T18:08:41.541Z,6.47
2023-05-03T18:11:09.332Z,6.57
2023-05-03T18:13:36.728Z,6.88
2023-05-03T18:16:10.119Z,7.68
2023-05-03T18:18:37.587Z,7.30
2023-05-03T18:21:05.323Z,7.40
2023-05-03T18:23:32.839Z,7.68
2023-05-03T18:26:00.330Z,5.93
2023-05-03T18:28:27.754Z,6.75
2023-05-03T18:30:57.587Z,6.05
2023-05-03T18:33:24.762Z,6.45
2023-05-03T18:35:52.882Z,5.75
2023-05-03T18:38:21.654Z,6.63
2023-05-03T18:40:49.580Z,5.85
2023-05-03T18:43:16.899Z,5.32
2023-05-03T18:45:44.850Z,5.07
2023-05-03T18:48:12.167Z,5.43
2023-05-03T18:50:39.708Z,5.75
2023-05-03T18:53:07.024Z,5.85
2023-05-03T18:55:34.147Z,5.32
2023-05-03T18:58:01.520Z,5.07
2023-05-03T19:00:28.683Z,5.57
2023-05-03T19:02:56.221Z,5.20
2023-05-03T19:05:23.911Z,6.07
2023-05-03T19:07:51.073Z,5.13
2023-05-03T19:10:19.924Z,4.55
2023-05-03T19:12:47.206Z,4.53
2023-05-03T19:15:14.271Z,4.68
2023-05-03T19:17:42.057Z,5.13
2023-05-03T19:20:12.758Z,5.97
2023-05-03T19:22:40.190Z,5.32
2023-05-03T19:25:07.991Z,4.13
2023-05-03T19:27:35.195Z,6.32
2023-05-03T19:30:03.063Z,5.47
2023-05-03T19:32:32.054Z,5.43
2023-05-03T19:34:59.196Z,5.53
2023-05-03T19:37:26.548Z,6.28
2023-05-03T19:39:53.843Z,4.82
2023-05-03T19:42:21.163Z,5.35
2023-05-03T19:44:48.354Z,6.07
2023-05-03T19:47:15.806Z,4.85
2023-05-03T19:49:43.217Z,6.15
2023-05-03T19:52:10.353Z,5.15
2023-05-03T19:54:37.632Z,5.07
2023-05-03T19:57:06.257Z,5.93
2023-05-03T19:59:34.217Z,6.00
2023-05-03T20:02:01.584Z,5.60
2023-05-03T20:04:29.377Z,5.35
2023-05-03T20:06:57.406Z,5.70
2023-05-03T20:09:24.671Z,5.82
2023-05-03T20:11:58.876Z,5.03
2023-05-03T20:14:29.281Z,5.07
2023-05-03T20:16:57.037Z,4.55
2023-05-03T20:19:25.460Z,4.35
2023-05-03T20:21:52.853Z,4.68
2023-05-03T20:24:21.613Z,4.45
2023-05-03T20:26:48.838Z,4.70
2023-05-03T20:29:16.001Z,5.35
2023-05-03T20:31:43.700Z,5.00
2023-05-03T20:34:11.766Z,5.07
2023-05-03T20:36:38.914Z,5.47
2023-05-03T20:39:06.235Z,5.13
2023-05-03T20:41:33.446Z,4.72
2023-05-03T20:44:00.622Z,5.03
2023-05-03T20:46:27.757Z,5.13
2023-05-03T20:48:55.148Z,6.00
2023-05-03T20:51:22.603Z,5.88
2023-05-03T20:53:49.760Z,4.70
2023-05-03T20:56:17.541Z,5.43
2023-05-03T20:58:45.396Z,5.07
2023-05-03T21:01:12.647Z,5.93
2023-05-03T21:03:39.881Z,6.40
2023-05-03T21:06:07.248Z,6.22
2023-05-03T21:08:34.812Z,5.32
2023-05-03T21:11:02.228Z,6.30
2023-05-03T21:13:29.429Z,6.13
2023-05-03T21:15:56.597Z,5.45
2023-05-03T21:18:24.856Z,6.18
2023-05-03T21:20:53.770Z,4.25
2023-05-03T21:23:21.088Z,5.47
2023-05-03T21:25:48.267Z,7.07
2023-05-03T21:28:15.683Z,5.57
2023-05-03T21:30:43.962Z,5.47
2023-05-03T21:33:11.761Z,5.10
2023-05-03T21:35:38.982Z,5.10
2023-05-03T21:38:06.586Z,6.30
2023-05-03T21:40:33.971Z,5.40
2023-05-03T21:43:01.192Z,4.60
2023-05-03T21:45:28.409Z,5.00
2023-05-03T21:47:55.611Z,4.97
2023-05-03T21:50:23.692Z,4.95
2023-05-03T21:52:50.819Z,5.82
2023-05-03T21:55:19.503Z,5.60
2023-05-03T21:57:46.772Z,5.95
2023-05-03T22:00:18.694Z,6.18
2023-05-03T22:02:46.044Z,5.95
2023-05-03T22:05:13.351Z,4.95
2023-05-03T22:07:40.562Z,5.63
2023-05-03T22:10:08.441Z,5.70
2023-05-03T22:12:35.712Z,5.47
2023-05-03T22:15:04.072Z,5.75
2023-05-03T22:17:31.698Z,5.22
2023-05-03T22:20:00.041Z,4.80
2023-05-03T22:22:27.224Z,5.15
2023-05-03T22:24:55.657Z,4.82
2023-05-03T22:27:23.826Z,4.90
2023-05-03T22:29:51.266Z,6.78
2023-05-03T22:32:18.628Z,6.18
2023-05-03T22:34:46.334Z,5.82
2023-05-03T22:37:13.664Z,6.15
2023-05-03T22:39:40.838Z,6.00
2023-05-03T22:42:08.179Z,5.93
2023-05-03T22:44:36.870Z,6.47
2023-05-03T22:47:04.017Z,6.03
2023-05-03T22:49:31.479Z,5.68
2023-05-03T22:51:58.583Z,4.93
2023-05-03T22:54:26.227Z,6.85
2023-05-03T22:56:54.737Z,5.82
2023-05-03T22:59:21.924Z,5.47
2023-05-03T23:01:49.652Z,8.20
2023-05-03T23:04:17.163Z,6.55
2023-05-03T23:06:44.703Z,6.20
2023-05-03T23:09:11.909Z,5.93
2023-05-03T23:11:39.039Z,6.68
2023-05-03T23:14:06.268Z,6.18
2023-05-03T23:16:33.794Z,5.85
2023-05-03T23:19:00.895Z,7.75
2023-05-03T23:21:28.081Z,7.45
2023-05-03T23:23:55.176Z,7.28
2023-05-03T23:26:22.354Z,8.52
2023-05-03T23:28:50.075Z,8.05
2023-05-03T23:31:17.559Z,6.60
2023-05-03T23:33:45.093Z,7.35
2023-05-03T23:36:12.554Z,8.23
2023-05-03T23:38:39.884Z,7.68
2023-05-03T23:41:07.099Z,6.95
2023-05-03T23:43:34.234Z,7.72
2023-05-03T23:46:01.569Z,8.98
2023-05-03T23:48:28.724Z,6.60
2023-05-03T23:50:55.830Z,6.80
2023-05-03T23:53:23.029Z,7.20
2023-05-03T23:55:50.187Z,8.35
2023-05-03T23:58:17.261Z,9.27
